Terminal Aerodrome Forecast
Issued by NWS Sioux Falls, SD

Home | Current Version | Previous Version | Text Only | Print | Product List | Glossary Off
Versions: 1 2 3 4 5 6 7 8 9 10 11 12 13 14 15 16 17 18 19 20 21 22 23

000
FTUS43 KFSD 251727
TAFSUX
TAF
KSUX 251727Z 2518/2618 13007KT P6SM SCT120 SCT250
     FM260200 02010KT P6SM SCT040 BKN060
     FM261000 36012KT P6SM BKN015 OVC040
     FM261400 35014KT 5SM -SN OVC012=

USA.gov is the U.S. government's official web portal to all federal, state and local government web resources and services.